createdAt,value
2018-11-26T00:00:43.814Z,4.26
2018-11-26T00:01:43.804Z,4.26
2018-11-26T00:02:43.801Z,4.24
2018-11-26T00:03:43.798Z,4.25
2018-11-26T00:04:43.771Z,4.26
2018-11-26T00:05:43.762Z,4.22
2018-11-26T00:06:43.750Z,4.16
2018-11-26T00:07:43.740Z,4.19
2018-11-26T00:08:43.752Z,4.22
2018-11-26T00:09:43.716Z,4.22
2018-11-26T00:10:43.704Z,4.19
2018-11-26T00:11:43.695Z,4.16
2018-11-26T00:12:43.684Z,4.21
2018-11-26T00:13:43.706Z,4.18
2018-11-26T00:14:43.668Z,4.21
2018-11-26T00:15:43.653Z,4.24
2018-11-26T00:16:43.639Z,4.24
2018-11-26T00:17:43.629Z,4.22
2018-11-26T00:18:43.617Z,4.19
2018-11-26T00:19:43.642Z,4.24
2018-11-26T00:20:43.600Z,4.24
2018-11-26T00:21:43.582Z,4.25
2018-11-26T00:22:43.572Z,4.24
2018-11-26T00:23:43.561Z,4.21
2018-11-26T00:24:43.547Z,4.22
2018-11-26T00:25:43.553Z,4.18
2018-11-26T00:26:43.535Z,4.24
2018-11-26T00:27:43.516Z,4.21
2018-11-26T00:28:43.506Z,4.19
2018-11-26T00:29:43.493Z,4.18
2018-11-26T00:30:43.514Z,4.10
2018-11-26T00:31:43.473Z,4.10
2018-11-26T00:32:43.468Z,4.12
2018-11-26T00:33:43.448Z,4.14
2018-11-26T00:34:43.437Z,4.16
2018-11-26T00:35:43.426Z,4.14
2018-11-26T00:36:43.446Z,4.06
2018-11-26T00:37:43.402Z,4.15
2018-11-26T00:38:43.403Z,4.19
2018-11-26T00:39:43.381Z,4.07
2018-11-26T00:40:43.369Z,4.16
2018-11-26T00:41:43.358Z,4.04
2018-11-26T00:42:43.384Z,4.04
2018-11-26T00:43:43.338Z,4.07
2018-11-26T00:44:43.337Z,4.01
2018-11-26T00:45:43.315Z,4.12
2018-11-26T00:46:43.303Z,4.03
2018-11-26T00:47:43.293Z,4.04
2018-11-26T00:48:43.295Z,4.04
2018-11-26T00:49:43.271Z,4.04
2018-11-26T00:50:43.281Z,4.03
2018-11-26T00:51:43.248Z,4.04
2018-11-26T00:52:43.237Z,4.08
2018-11-26T00:53:43.227Z,4.14
2018-11-26T00:54:43.223Z,4.04
2018-11-26T00:55:43.216Z,4.06
2018-11-26T00:56:43.199Z,4.10
2018-11-26T00:57:43.181Z,4.18
2018-11-26T00:58:43.171Z,4.21
2018-11-26T00:59:43.161Z,4.18
2018-11-26T01:00:43.182Z,4.15
2018-11-26T01:01:43.138Z,4.15
2018-11-26T01:02:43.135Z,4.16
2018-11-26T01:03:43.116Z,4.12
2018-11-26T01:04:43.109Z,4.04
2018-11-26T01:05:43.094Z,4.04
2018-11-26T01:06:43.096Z,4.00
2018-11-26T01:07:43.070Z,4.08
2018-11-26T01:08:43.067Z,4.01
2018-11-26T01:09:43.049Z,4.06
2018-11-26T01:10:43.048Z,3.98
2018-11-26T01:11:43.038Z,4.18
2018-11-26T01:12:43.016Z,4.04
2018-11-26T01:13:43.004Z,4.08
2018-11-26T01:14:42.997Z,4.04
2018-11-26T01:15:42.997Z,4.07
2018-11-26T01:16:43.017Z,4.14
2018-11-26T01:17:42.959Z,4.03
2018-11-26T01:18:42.949Z,4.16
2018-11-26T01:19:42.939Z,4.04
2018-11-26T01:20:42.935Z,4.04
2018-11-26T01:21:42.915Z,4.12
2018-11-26T01:22:42.917Z,4.03
2018-11-26T01:23:42.894Z,4.04
2018-11-26T01:24:42.882Z,4.08
2018-11-26T01:25:42.871Z,4.06
2018-11-26T01:26:42.882Z,4.06
2018-11-26T01:27:42.849Z,4.06
2018-11-26T01:28:42.837Z,4.00
2018-11-26T01:29:42.827Z,4.15
2018-11-26T01:30:42.816Z,4.01
2018-11-26T01:31:42.840Z,4.10
2018-11-26T01:32:42.802Z,4.03
2018-11-26T01:33:42.783Z,4.03
2018-11-26T01:34:42.770Z,4.03
2018-11-26T01:35:42.771Z,4.03
2018-11-26T01:36:42.750Z,4.06
2018-11-26T01:37:42.751Z,4.04
2018-11-26T01:38:42.736Z,4.06
2018-11-26T01:39:42.750Z,4.10
2018-11-26T01:40:42.707Z,4.08
2018-11-26T01:41:42.696Z,4.07
2018-11-26T01:42:42.685Z,4.08
2018-11-26T01:43:42.672Z,4.04
2018-11-26T01:44:42.665Z,4.10
2018-11-26T01:45:42.662Z,4.04
2018-11-26T01:46:42.639Z,4.06
2018-11-26T01:47:42.627Z,4.10
2018-11-26T01:48:42.649Z,4.00
2018-11-26T01:49:42.606Z,4.00
2018-11-26T01:50:42.604Z,3.96
2018-11-26T01:51:42.584Z,4.03
2018-11-26T01:52:42.580Z,4.00
2018-11-26T01:53:42.562Z,3.97
2018-11-26T01:54:42.584Z,3.97
2018-11-26T01:55:42.539Z,3.96
2018-11-26T01:56:42.538Z,3.97
2018-11-26T01:57:42.518Z,3.98
2018-11-26T01:58:42.504Z,3.98
2018-11-26T01:59:42.495Z,3.97
2018-11-26T02:00:42.494Z,4.03
2018-11-26T02:01:42.473Z,4.00
2018-11-26T02:02:42.483Z,3.98
2018-11-26T02:03:42.483Z,4.01
2018-11-26T02:04:42.437Z,3.98
2018-11-26T02:05:42.428Z,4.03
2018-11-26T02:06:42.420Z,4.06
2018-11-26T02:07:42.405Z,3.98
2018-11-26T02:08:42.403Z,4.01
2018-11-26T02:09:42.418Z,4.07
2018-11-26T02:10:42.373Z,4.03
2018-11-26T02:11:42.361Z,4.03
2018-11-26T02:12:42.354Z,4.01
2018-11-26T02:13:42.339Z,4.04
2018-11-26T02:14:42.335Z,3.97
2018-11-26T02:15:42.349Z,3.97
2018-11-26T02:16:42.305Z,3.98
2018-11-26T02:17:42.294Z,3.97
2018-11-26T02:18:42.286Z,3.98
2018-11-26T02:19:42.272Z,3.98
2018-11-26T02:20:42.267Z,3.97
2018-11-26T02:21:42.260Z,3.92
2018-11-26T02:22:42.238Z,4.01
2018-11-26T02:23:42.227Z,3.98
2018-11-26T02:24:42.219Z,3.94
2018-11-26T02:25:42.217Z,4.00
2018-11-26T02:26:42.245Z,3.97
2018-11-26T02:27:42.182Z,3.94
2018-11-26T02:28:42.223Z,3.86
2018-11-26T02:29:42.161Z,3.85
2018-11-26T02:30:42.149Z,3.80
2018-11-26T02:31:42.138Z,3.86
2018-11-26T02:32:42.170Z,3.79
2018-11-26T02:33:42.117Z,3.83
2018-11-26T02:34:42.106Z,3.85
2018-11-26T02:35:42.096Z,3.75
2018-11-26T02:36:42.083Z,3.80
2018-11-26T02:37:42.072Z,3.82
2018-11-26T02:38:42.079Z,3.76
2018-11-26T02:39:42.048Z,3.82
2018-11-26T02:40:42.039Z,3.80
2018-11-26T02:41:42.028Z,3.78
2018-11-26T02:42:42.017Z,3.79
2018-11-26T02:43:42.039Z,3.76
2018-11-26T02:44:42.008Z,3.79
2018-11-26T02:45:41.984Z,3.68
2018-11-26T02:46:41.972Z,3.67
2018-11-26T02:47:41.961Z,3.62
2018-11-26T02:48:41.950Z,3.80
2018-11-26T02:49:41.951Z,3.67
2018-11-26T02:50:41.939Z,3.72
2018-11-26T02:51:41.917Z,3.68
2018-11-26T02:52:41.904Z,3.70
2018-11-26T02:53:41.895Z,3.62
2018-11-26T02:54:41.897Z,3.70
2018-11-26T02:55:41.872Z,3.62
2018-11-26T02:56:41.869Z,3.70
2018-11-26T02:57:41.850Z,3.76
2018-11-26T02:58:41.849Z,3.85
2018-11-26T02:59:41.861Z,3.76
2018-11-26T03:00:41.817Z,3.62
2018-11-26T03:01:41.807Z,3.82
2018-11-26T03:02:41.801Z,3.67
2018-11-26T03:03:41.783Z,3.62
2018-11-26T03:04:41.774Z,3.68
2018-11-26T03:05:41.807Z,3.67
2018-11-26T03:06:41.749Z,3.79
2018-11-26T03:07:41.740Z,3.75
2018-11-26T03:08:41.738Z,3.78
2018-11-26T03:09:41.718Z,3.70
2018-11-26T03:10:41.711Z,3.67
2018-11-26T03:11:41.731Z,3.70
2018-11-26T03:12:41.685Z,3.70
2018-11-26T03:13:41.675Z,3.70
2018-11-26T03:14:41.668Z,3.79
2018-11-26T03:15:41.652Z,3.80
2018-11-26T03:16:41.640Z,3.64
2018-11-26T03:17:41.660Z,3.62
2018-11-26T03:18:41.618Z,3.70
2018-11-26T03:19:41.607Z,3.79
2018-11-26T03:20:41.603Z,3.75
2018-11-26T03:21:41.585Z,3.79
2018-11-26T03:22:41.574Z,3.65
2018-11-26T03:23:41.574Z,3.83
2018-11-26T03:24:41.591Z,3.80
2018-11-26T03:25:41.554Z,3.76
2018-11-26T03:26:41.537Z,3.76
2018-11-26T03:27:41.518Z,3.78
2018-11-26T03:28:41.508Z,3.64
2018-11-26T03:29:41.501Z,3.64
2018-11-26T03:30:41.516Z,3.65
2018-11-26T03:31:41.478Z,3.64
2018-11-26T03:32:41.485Z,3.68
2018-11-26T03:33:41.453Z,3.70
2018-11-26T03:34:41.441Z,3.67
2018-11-26T03:35:41.431Z,3.70
2018-11-26T03:36:41.455Z,3.64
2018-11-26T03:37:41.407Z,3.71
2018-11-26T03:38:41.404Z,3.67
2018-11-26T03:39:41.385Z,3.54
2018-11-26T03:40:41.373Z,3.61
2018-11-26T03:41:41.362Z,3.60
2018-11-26T03:42:41.365Z,3.65
2018-11-26T03:43:41.343Z,3.53
2018-11-26T03:44:41.337Z,3.52
2018-11-26T03:45:41.318Z,3.52
2018-11-26T03:46:41.307Z,3.54
2018-11-26T03:47:41.331Z,3.49
2018-11-26T03:48:41.283Z,3.52
2018-11-26T03:49:41.273Z,3.57
2018-11-26T03:50:41.270Z,3.53
2018-11-26T03:51:41.252Z,3.49
2018-11-26T03:52:41.239Z,3.50
2018-11-26T03:53:41.241Z,3.47
2018-11-26T03:54:41.219Z,3.53
2018-11-26T03:55:41.210Z,3.52
2018-11-26T03:56:41.203Z,3.43
2018-11-26T03:57:41.196Z,3.42
2018-11-26T03:58:41.172Z,3.43
2018-11-26T03:59:41.162Z,3.43
2018-11-26T04:00:41.151Z,3.44
2018-11-26T04:01:41.138Z,3.39
2018-11-26T04:02:41.173Z,3.42
2018-11-26T04:03:41.117Z,3.42
2018-11-26T04:04:41.107Z,3.43
2018-11-26T04:05:41.095Z,3.31
2018-11-26T04:06:41.088Z,3.33
2018-11-26T04:07:41.071Z,3.33
2018-11-26T04:08:41.080Z,3.30
2018-11-26T04:09:41.052Z,3.39
2018-11-26T04:10:41.053Z,3.23
2018-11-26T04:11:41.028Z,3.25
2018-11-26T04:12:41.017Z,3.33
2018-11-26T04:13:41.050Z,3.25
2018-11-26T04:14:41.047Z,3.27
2018-11-26T04:15:40.984Z,3.21
2018-11-26T04:16:40.972Z,3.07
2018-11-26T04:17:40.961Z,3.24
2018-11-26T04:18:40.950Z,3.25
2018-11-26T04:19:40.939Z,3.16
2018-11-26T04:20:40.971Z,3.09
2018-11-26T04:21:40.922Z,3.09
2018-11-26T04:22:40.906Z,3.05
2018-11-26T04:23:40.893Z,3.12
2018-11-26T04:24:40.884Z,3.07
2018-11-26T04:25:40.871Z,3.00
2018-11-26T04:26:40.885Z,3.05
2018-11-26T04:27:40.849Z,3.06
2018-11-26T04:28:40.839Z,3.02
2018-11-26T04:29:40.848Z,3.02
2018-11-26T04:30:40.818Z,3.03
2018-11-26T04:31:40.807Z,3.00
2018-11-26T04:32:40.835Z,2.98
2018-11-26T04:33:40.785Z,2.94
2018-11-26T04:34:40.772Z,2.85
2018-11-26T04:35:40.760Z,2.95
2018-11-26T04:36:40.750Z,2.91
2018-11-26T04:37:40.742Z,2.87
2018-11-26T04:38:40.766Z,2.85
2018-11-26T04:39:40.718Z,2.94
2018-11-26T04:40:40.705Z,2.84
2018-11-26T04:41:40.695Z,2.91
2018-11-26T04:42:40.683Z,2.85
2018-11-26T04:43:40.674Z,2.87
2018-11-26T04:44:40.700Z,2.87
2018-11-26T04:45:40.650Z,2.87
2018-11-26T04:46:40.637Z,2.84
2018-11-26T04:47:40.626Z,2.88
2018-11-26T04:48:40.617Z,2.84
2018-11-26T04:49:40.605Z,2.88
2018-11-26T04:50:40.618Z,2.85
2018-11-26T04:51:40.582Z,2.84
2018-11-26T04:52:40.577Z,2.84
2018-11-26T04:53:40.572Z,2.82
2018-11-26T04:54:40.555Z,2.77
2018-11-26T04:55:40.538Z,2.77
2018-11-26T04:56:40.534Z,2.84
2018-11-26T04:57:42.625Z,2.92
2018-11-26T04:58:40.517Z,2.89
2018-11-26T04:59:40.495Z,2.81
2018-11-26T05:00:40.487Z,2.77
2018-11-26T05:01:40.469Z,2.79
2018-11-26T05:02:40.486Z,2.87
2018-11-26T05:03:40.449Z,2.81
2018-11-26T05:04:40.439Z,2.88
2018-11-26T05:05:40.427Z,2.85
2018-11-26T05:06:40.415Z,2.91
2018-11-26T05:07:40.420Z,2.89
2018-11-26T05:08:40.402Z,2.91
2018-11-26T05:09:40.382Z,2.88
2018-11-26T05:10:40.373Z,2.88
2018-11-26T05:11:40.371Z,2.87
2018-11-26T05:12:40.362Z,2.71
2018-11-26T05:13:40.338Z,2.79
2018-11-26T05:14:40.338Z,2.79
2018-11-26T05:15:40.315Z,2.76
2018-11-26T05:16:40.305Z,2.71
2018-11-26T05:17:40.304Z,2.74
2018-11-26T05:18:40.325Z,2.73
2018-11-26T05:19:40.270Z,2.71
2018-11-26T05:20:40.268Z,2.71
2018-11-26T05:21:40.249Z,2.69
2018-11-26T05:22:40.238Z,2.67
2018-11-26T05:23:40.226Z,2.64
2018-11-26T05:24:40.226Z,2.66
2018-11-26T05:25:40.239Z,2.71
2018-11-26T05:26:40.210Z,2.64
2018-11-26T05:27:40.210Z,2.66
2018-11-26T05:28:40.170Z,2.64
2018-11-26T05:29:40.158Z,2.67
2018-11-26T05:30:40.148Z,2.64
2018-11-26T05:31:40.149Z,2.56
2018-11-26T05:32:40.180Z,2.64
2018-11-26T05:33:40.116Z,2.59
2018-11-26T05:34:40.103Z,2.64
2018-11-26T05:35:40.092Z,2.59
2018-11-26T05:36:40.114Z,2.61
2018-11-26T05:37:40.070Z,2.53
2018-11-26T05:38:40.067Z,2.45
2018-11-26T05:39:40.047Z,2.51
2018-11-26T05:40:40.038Z,2.46
2018-11-26T05:41:40.027Z,2.45
2018-11-26T05:42:40.045Z,2.40
2018-11-26T05:43:40.007Z,2.46
2018-11-26T05:44:39.999Z,2.41
2018-11-26T05:45:39.981Z,2.35
2018-11-26T05:46:39.971Z,2.35
2018-11-26T05:47:39.958Z,2.37
2018-11-26T05:48:39.964Z,2.38
2018-11-26T05:49:39.937Z,2.35
2018-11-26T05:50:39.932Z,2.37
2018-11-26T05:51:39.914Z,2.31
2018-11-26T05:52:39.909Z,2.45
2018-11-26T05:53:39.923Z,2.45
2018-11-26T05:54:39.883Z,2.40
2018-11-26T05:55:39.870Z,2.48
2018-11-26T05:56:39.869Z,2.48
2018-11-26T05:57:39.848Z,2.38
2018-11-26T05:58:39.837Z,2.38
2018-11-26T05:59:39.858Z,2.31
2018-11-26T06:00:39.815Z,2.31
2018-11-26T06:01:39.802Z,2.44
2018-11-26T06:02:40.668Z,2.34
2018-11-26T06:03:44.663Z,2.38
2018-11-26T06:05:55.709Z,2.37
2018-11-26T06:06:54.466Z,2.38
2018-11-26T06:07:54.457Z,2.30
2018-11-26T06:08:54.445Z,2.38
2018-11-26T06:09:54.467Z,2.37
2018-11-26T06:10:54.424Z,2.34
2018-11-26T06:11:54.420Z,2.38
2018-11-26T06:12:54.403Z,2.33
2018-11-26T06:13:54.394Z,2.35
2018-11-26T06:14:54.390Z,2.37
2018-11-26T06:15:54.410Z,2.35
2018-11-26T06:16:54.358Z,2.35
2018-11-26T06:17:54.349Z,2.41
2018-11-26T06:18:54.336Z,2.35
2018-11-26T06:19:54.333Z,2.31
2018-11-26T06:20:54.313Z,2.38
2018-11-26T06:21:54.316Z,2.38
2018-11-26T06:22:54.295Z,2.30
2018-11-26T06:23:54.283Z,2.34
2018-11-26T06:24:54.271Z,2.41
2018-11-26T06:25:54.278Z,2.27
2018-11-26T06:26:54.262Z,2.38
2018-11-26T06:27:54.238Z,2.23
2018-11-26T06:28:54.227Z,2.37
2018-11-26T06:29:54.220Z,2.19
2018-11-26T06:30:54.206Z,2.20
2018-11-26T06:31:54.214Z,2.23
2018-11-26T06:32:54.184Z,2.19
2018-11-26T06:33:54.174Z,2.16
2018-11-26T06:34:54.164Z,2.20
2018-11-26T06:35:54.152Z,2.26
2018-11-26T06:36:54.152Z,2.20
2018-11-26T06:37:54.240Z,2.34
2018-11-26T06:38:54.119Z,2.23
2018-11-26T06:39:54.107Z,2.20
2018-11-26T06:40:54.095Z,2.27
2018-11-26T06:41:54.114Z,2.19
2018-11-26T06:42:54.072Z,2.20
2018-11-26T06:43:54.070Z,2.17
2018-11-26T06:44:54.053Z,2.17
2018-11-26T06:45:54.042Z,2.23
2018-11-26T06:46:54.033Z,2.26
2018-11-26T06:47:54.033Z,2.19
2018-11-26T06:48:54.009Z,2.06
2018-11-26T06:49:54.015Z,2.06
2018-11-26T06:50:53.985Z,2.08
2018-11-26T06:51:53.986Z,2.17
2018-11-26T06:52:53.965Z,2.10
2018-11-26T06:53:53.965Z,2.12
2018-11-26T06:54:53.942Z,2.06
2018-11-26T06:55:53.980Z,2.10
2018-11-26T06:56:53.920Z,2.06
2018-11-26T06:57:53.910Z,2.09
2018-11-26T06:58:53.898Z,2.09
2018-11-26T07:02:45.092Z,1.99
2018-11-26T07:03:21.311Z,2.06
2018-11-26T07:04:21.311Z,2.04
2018-11-26T07:05:21.291Z,2.06
2018-11-26T07:06:21.278Z,1.98
2018-11-26T07:07:21.300Z,2.06
2018-11-26T07:08:21.255Z,1.98
2018-11-26T07:09:21.249Z,1.97
2018-11-26T07:10:21.238Z,1.91
2018-11-26T07:11:21.221Z,1.91
2018-11-26T07:12:21.212Z,1.87
2018-11-26T07:13:21.212Z,1.93
2018-11-26T07:14:21.193Z,1.87
2018-11-26T07:15:21.188Z,1.94
2018-11-26T07:16:21.167Z,1.94
2018-11-26T07:17:21.158Z,1.85
2018-11-26T07:18:21.219Z,1.85
2018-11-26T07:19:21.136Z,1.97
2018-11-26T07:20:21.122Z,1.93
2018-11-26T07:21:21.124Z,1.85
2018-11-26T07:22:21.100Z,1.90
2018-11-26T07:23:21.088Z,1.85
2018-11-26T07:24:21.120Z,1.82
2018-11-26T07:25:21.070Z,1.78
2018-11-26T07:26:21.056Z,1.80
2018-11-26T07:27:21.053Z,1.79
2018-11-26T07:28:21.036Z,1.79
2018-11-26T07:29:24.213Z,1.83
2018-11-26T07:30:21.035Z,1.79
2018-11-26T07:31:21.000Z,1.79
2018-11-26T07:32:20.989Z,1.79
2018-11-26T07:33:20.985Z,1.83
2018-11-26T07:34:20.968Z,1.90
2018-11-26T07:35:20.956Z,1.90
2018-11-26T07:36:20.966Z,1.83
2018-11-26T07:37:20.933Z,1.82
2018-11-26T07:38:20.923Z,1.79
2018-11-26T07:39:20.917Z,1.87
2018-11-26T07:40:20.901Z,1.79
2018-11-26T07:41:20.890Z,1.83
2018-11-26T07:42:20.893Z,1.79
2018-11-26T07:43:20.868Z,1.83
2018-11-26T07:44:20.856Z,1.94
2018-11-26T07:45:20.857Z,1.83
2018-11-26T07:46:20.855Z,1.89
2018-11-26T07:47:20.823Z,1.82
2018-11-26T07:48:20.813Z,1.82
2018-11-26T07:49:20.802Z,1.82
2018-11-26T07:50:20.791Z,1.91
2018-11-26T07:51:20.785Z,1.76
2018-11-26T07:52:20.800Z,1.76
2018-11-26T07:53:20.756Z,1.76
2018-11-26T07:54:20.746Z,1.79
2018-11-26T07:55:20.734Z,1.72
2018-11-26T07:56:20.723Z,1.69
2018-11-26T07:57:20.719Z,1.71
2018-11-26T07:58:20.714Z,1.64
2018-11-26T07:59:20.692Z,1.73
2018-11-26T08:00:20.680Z,1.75
2018-11-26T08:01:20.669Z,1.72
2018-11-26T08:02:20.671Z,1.72
2018-11-26T08:03:20.668Z,1.75
2018-11-26T08:04:20.639Z,1.76
2018-11-26T08:05:20.625Z,1.72
2018-11-26T08:06:20.614Z,1.73
2018-11-26T08:07:20.602Z,1.76
2018-11-26T08:08:20.624Z,1.73
2018-11-26T08:09:20.587Z,1.80
2018-11-26T08:10:20.568Z,1.76
2018-11-26T08:11:20.557Z,1.87
2018-11-26T08:12:20.548Z,1.80
2018-11-26T08:13:20.535Z,1.79
2018-11-26T08:14:20.559Z,1.78
2018-11-26T08:15:20.521Z,1.78
2018-11-26T08:16:20.502Z,1.83
2018-11-26T08:17:20.492Z,1.78
2018-11-26T08:18:20.481Z,1.87
2018-11-26T08:19:20.470Z,1.90
2018-11-26T08:20:20.491Z,1.89
2018-11-26T08:21:20.456Z,1.90
2018-11-26T08:22:20.436Z,1.90
2018-11-26T08:23:20.424Z,2.01
2018-11-26T08:24:20.413Z,1.99
2018-11-26T08:25:20.403Z,1.98
2018-11-26T08:26:20.402Z,2.08
2018-11-26T08:27:20.394Z,2.02
2018-11-26T08:28:20.372Z,1.99
2018-11-26T08:29:20.357Z,2.12
2018-11-26T08:30:20.347Z,2.01
2018-11-26T08:31:20.349Z,2.09
2018-11-26T08:32:20.325Z,1.99
2018-11-26T08:33:20.322Z,2.09
2018-11-26T08:34:20.303Z,2.09
2018-11-26T08:35:20.296Z,2.13
2018-11-26T08:36:20.293Z,2.12
2018-11-26T08:37:20.271Z,2.16
2018-11-26T08:38:20.271Z,2.13
2018-11-26T08:39:20.253Z,2.20
2018-11-26T08:40:20.237Z,2.27
2018-11-26T08:41:20.224Z,2.19
2018-11-26T08:42:20.215Z,2.16
2018-11-26T08:43:20.271Z,2.27
2018-11-26T08:44:20.191Z,2.23
2018-11-26T08:45:20.185Z,2.26
2018-11-26T08:46:20.170Z,2.27
2018-11-26T08:47:20.159Z,2.20
2018-11-26T08:48:20.182Z,2.27
2018-11-26T08:49:20.156Z,2.23
2018-11-26T08:50:20.125Z,2.22
2018-11-26T08:51:20.120Z,2.35
2018-11-26T08:52:20.104Z,2.22
2018-11-26T08:53:20.106Z,2.19
2018-11-26T08:54:20.081Z,2.20
2018-11-26T08:55:20.104Z,2.33
2018-11-26T08:56:20.059Z,2.33
2018-11-26T08:57:20.056Z,2.38
2018-11-26T08:58:20.035Z,2.38
2018-11-26T08:59:20.024Z,2.38
2018-11-26T09:00:20.039Z,2.35
2018-11-26T09:01:20.033Z,2.31
2018-11-26T09:02:19.997Z,2.45
2018-11-26T09:03:19.985Z,2.46
2018-11-26T09:04:19.971Z,2.38
2018-11-26T09:05:24.250Z,2.46
2018-11-26T09:06:19.947Z,2.51
2018-11-26T09:07:20.082Z,2.52
2018-11-26T09:08:19.928Z,2.59
2018-11-26T09:09:19.921Z,2.53
2018-11-26T09:10:19.902Z,2.52
2018-11-26T09:11:19.892Z,2.58
2018-11-26T09:12:19.881Z,2.53
2018-11-26T09:13:19.882Z,2.61
2018-11-26T09:14:19.856Z,2.61
2018-11-26T09:15:19.853Z,2.66
2018-11-26T09:16:19.867Z,2.61
2018-11-26T09:17:19.825Z,2.67
2018-11-26T09:18:19.814Z,2.61
2018-11-26T09:19:19.802Z,2.59
2018-11-26T09:20:19.826Z,2.69
2018-11-26T09:21:19.787Z,2.70
2018-11-26T09:22:19.780Z,2.69
2018-11-26T09:23:19.757Z,2.74
2018-11-26T09:24:19.744Z,2.74
2018-11-26T09:25:19.735Z,2.82
2018-11-26T09:26:19.722Z,2.76
2018-11-26T09:27:19.756Z,2.89
2018-11-26T09:28:19.702Z,2.88
2018-11-26T09:29:19.691Z,2.84
2018-11-26T09:30:19.679Z,2.91
2018-11-26T09:31:19.669Z,2.95
2018-11-26T09:32:19.658Z,3.02
2018-11-26T09:33:19.688Z,2.98
2018-11-26T09:34:19.637Z,2.85
2018-11-26T09:35:19.623Z,2.89
2018-11-26T09:36:19.613Z,2.79
2018-11-26T09:37:19.602Z,2.79
2018-11-26T09:38:19.593Z,2.81
2018-11-26T09:39:19.598Z,2.79
2018-11-26T09:40:19.602Z,2.79
2018-11-26T09:41:19.559Z,2.87
2018-11-26T09:42:19.546Z,2.88
2018-11-26T09:43:19.534Z,2.91
2018-11-26T09:44:19.525Z,2.89
2018-11-26T09:45:19.517Z,2.84
2018-11-26T09:46:19.535Z,2.87
2018-11-26T09:47:19.498Z,2.89
2018-11-26T09:48:19.483Z,2.92
2018-11-26T09:49:19.470Z,2.87
2018-11-26T09:50:19.457Z,2.74
2018-11-26T09:51:19.451Z,2.82
2018-11-26T09:52:19.448Z,2.77
2018-11-26T09:53:19.425Z,2.79
2018-11-26T09:54:25.767Z,2.77
2018-11-26T09:55:20.404Z,2.79
2018-11-26T09:56:19.390Z,2.69
2018-11-26T09:57:19.399Z,2.77
2018-11-26T09:58:19.406Z,2.63
2018-11-26T09:59:19.358Z,2.69
2018-11-26T10:00:19.348Z,2.67
2018-11-26T10:01:19.335Z,2.56
2018-11-26T10:02:19.323Z,2.58
2018-11-26T10:03:19.319Z,2.44
2018-11-26T10:04:19.337Z,2.46
2018-11-26T10:05:19.292Z,2.45
2018-11-26T10:06:19.281Z,2.33
2018-11-26T10:07:19.270Z,2.23
2018-11-26T10:08:19.257Z,2.40
2018-11-26T10:09:19.255Z,2.37
2018-11-26T10:10:19.246Z,2.38
2018-11-26T10:11:19.226Z,2.35
2018-11-26T10:12:19.214Z,2.40
2018-11-26T10:13:19.203Z,2.44
2018-11-26T10:14:19.191Z,2.44
2018-11-26T10:15:19.207Z,2.40
2018-11-26T10:16:19.171Z,2.44
2018-11-26T10:17:19.158Z,2.53
2018-11-26T10:18:19.149Z,2.55
2018-11-26T10:19:19.137Z,2.56
2018-11-26T10:20:19.127Z,2.58
2018-11-26T10:21:19.152Z,2.53
2018-11-26T10:22:19.101Z,2.61
2018-11-26T10:23:19.091Z,2.52
2018-11-26T10:24:19.078Z,2.58
2018-11-26T10:25:19.069Z,2.53
2018-11-26T10:26:19.057Z,2.53
2018-11-26T10:27:19.081Z,2.63
2018-11-26T10:28:19.036Z,2.53
2018-11-26T10:29:19.023Z,2.58
2018-11-26T10:30:19.012Z,2.66
2018-11-26T10:31:19.000Z,2.58
2018-11-26T10:32:18.990Z,2.55
2018-11-26T10:33:19.002Z,2.61
2018-11-26T10:34:18.968Z,2.55
2018-11-26T10:35:18.969Z,2.61
2018-11-26T10:36:18.946Z,2.66
2018-11-26T10:37:18.935Z,2.69
2018-11-26T10:38:18.964Z,2.70
2018-11-26T10:39:18.921Z,2.76
2018-11-26T10:40:18.902Z,2.85
2018-11-26T10:41:18.891Z,2.79
2018-11-26T10:42:18.879Z,2.89
2018-11-26T10:43:18.869Z,2.84
2018-11-26T10:44:18.868Z,2.87
2018-11-26T10:45:18.865Z,2.94
2018-11-26T10:46:18.848Z,2.85
2018-11-26T10:47:18.823Z,2.77
2018-11-26T10:48:18.814Z,2.76
2018-11-26T10:49:18.816Z,2.79
2018-11-26T10:50:18.789Z,2.79
2018-11-26T10:51:18.806Z,2.81
2018-11-26T10:52:18.769Z,2.74
2018-11-26T10:53:18.757Z,2.76
2018-11-26T10:54:18.747Z,2.73
2018-11-26T10:55:18.736Z,2.64
2018-11-26T10:56:18.725Z,2.63
2018-11-26T10:57:18.733Z,2.53
2018-11-26T10:58:18.704Z,2.67
2018-11-26T10:59:18.690Z,2.58
2018-11-26T11:00:18.678Z,2.66
2018-11-26T11:01:18.669Z,2.64
2018-11-26T11:02:18.676Z,2.66
2018-11-26T11:03:18.651Z,2.61
2018-11-26T11:04:18.637Z,2.73
2018-11-26T11:05:18.623Z,2.63
2018-11-26T11:06:18.612Z,2.71
2018-11-26T11:07:18.601Z,2.81
2018-11-26T11:08:18.735Z,2.73
2018-11-26T11:09:18.586Z,2.77
2018-11-26T11:10:18.569Z,2.79
2018-11-26T11:11:23.178Z,2.85
2018-11-26T11:12:19.552Z,2.87
2018-11-26T11:13:18.544Z,2.82
2018-11-26T11:14:18.536Z,2.84
2018-11-26T11:15:18.518Z,2.82
2018-11-26T11:16:18.502Z,2.87
2018-11-26T11:17:18.496Z,2.87
2018-11-26T11:18:18.493Z,2.81
2018-11-26T11:19:18.469Z,2.76
2018-11-26T11:20:18.458Z,2.85
2018-11-26T11:21:18.452Z,2.82
2018-11-26T11:22:18.434Z,2.81
2018-11-26T11:23:18.435Z,2.73
2018-11-26T11:24:18.412Z,2.77
2018-11-26T11:25:18.404Z,2.71
2018-11-26T11:26:18.391Z,2.70
2018-11-26T11:27:18.389Z,2.67
2018-11-26T11:28:18.387Z,2.71
2018-11-26T11:29:18.356Z,2.79
2018-11-26T11:30:18.346Z,2.67
2018-11-26T11:31:18.334Z,2.70
2018-11-26T11:32:18.322Z,2.73
2018-11-26T11:34:18.304Z,2.74
2018-11-26T11:35:18.324Z,2.70
2018-11-26T11:36:18.277Z,2.71
2018-11-26T11:37:18.270Z,2.81
2018-11-26T11:38:18.257Z,2.73
2018-11-26T11:39:18.253Z,2.82
2018-11-26T11:40:18.232Z,2.70
2018-11-26T11:41:18.234Z,2.66
2018-11-26T11:42:18.211Z,2.61
2018-11-26T11:43:18.201Z,2.61
2018-11-26T11:44:18.190Z,2.64
2018-11-26T11:45:18.182Z,2.59
2018-11-26T11:46:18.178Z,2.66
2018-11-26T11:47:18.167Z,2.66
2018-11-26T11:48:18.146Z,2.64
2018-11-26T11:49:18.132Z,2.61
2018-11-26T11:50:18.121Z,2.74
2018-11-26T11:51:19.075Z,2.67
2018-11-26T11:52:18.112Z,2.64
2018-11-26T11:53:18.100Z,2.69
2018-11-26T11:54:18.076Z,2.71
2018-11-26T11:55:18.069Z,2.66
2018-11-26T11:56:18.065Z,2.63
2018-11-26T11:57:18.063Z,2.74
2018-11-26T11:58:18.045Z,2.77
2018-11-26T11:59:18.053Z,2.70
2018-11-26T12:00:18.010Z,2.64
2018-11-26T12:01:18.003Z,2.73
2018-11-26T12:02:17.988Z,2.74
2018-11-26T12:03:17.985Z,2.69
2018-11-26T12:04:17.968Z,2.74
2018-11-26T12:05:17.968Z,2.73
2018-11-26T12:06:17.943Z,2.71
2018-11-26T12:07:17.934Z,2.77
2018-11-26T12:08:17.958Z,2.79
2018-11-26T12:09:17.918Z,2.73
2018-11-26T12:10:17.899Z,2.74
2018-11-26T12:11:17.888Z,2.84
2018-11-26T12:12:17.875Z,2.81
2018-11-26T12:13:17.865Z,2.87
2018-11-26T12:14:17.870Z,2.82
2018-11-26T12:15:17.864Z,2.88
2018-11-26T12:16:17.831Z,2.91
2018-11-26T12:17:17.821Z,2.92
2018-11-26T12:18:17.811Z,2.87
2018-11-26T12:19:17.798Z,2.91
2018-11-26T12:20:17.824Z,2.89
2018-11-26T12:21:17.784Z,2.89
2018-11-26T12:22:17.763Z,2.95
2018-11-26T12:23:17.756Z,2.85
2018-11-26T12:24:17.743Z,2.91
2018-11-26T12:25:17.730Z,2.81
2018-11-26T12:26:17.751Z,2.89
2018-11-26T12:27:17.718Z,2.89
2018-11-26T12:28:17.697Z,3.00
2018-11-26T12:29:17.686Z,2.94
2018-11-26T12:30:17.676Z,2.91
2018-11-26T12:31:17.664Z,2.94
2018-11-26T12:32:17.666Z,2.92
2018-11-26T12:33:17.649Z,2.95
2018-11-26T12:34:17.630Z,2.91
2018-11-26T12:35:17.620Z,2.97
2018-11-26T12:36:17.620Z,2.97
2018-11-26T12:37:17.597Z,2.98
2018-11-26T12:38:17.585Z,3.05
2018-11-26T12:39:17.584Z,3.10
2018-11-26T12:40:17.563Z,3.12
2018-11-26T12:41:17.565Z,3.18
2018-11-26T12:42:17.588Z,3.18
2018-11-26T12:43:17.531Z,3.20
2018-11-26T12:44:17.519Z,3.15
2018-11-26T12:45:17.512Z,3.23
2018-11-26T12:46:17.497Z,3.15
2018-11-26T12:47:17.486Z,3.18
2018-11-26T12:48:17.517Z,3.21
2018-11-26T12:49:17.464Z,3.16
2018-11-26T12:50:17.455Z,3.10
2018-11-26T12:51:17.446Z,3.25
2018-11-26T12:52:17.429Z,3.25
2018-11-26T12:53:17.420Z,3.21
2018-11-26T12:54:17.419Z,3.28
2018-11-26T12:55:17.401Z,3.31
2018-11-26T12:56:17.387Z,3.24
2018-11-26T12:57:17.379Z,3.25
2018-11-26T12:58:17.488Z,3.23
2018-11-26T12:59:17.352Z,3.24
2018-11-26T13:00:17.341Z,3.30
2018-11-26T13:01:17.331Z,3.27
2018-11-26T13:02:17.321Z,3.34
2018-11-26T13:03:17.316Z,3.33
2018-11-26T13:04:17.348Z,3.36
2018-11-26T13:05:17.288Z,3.34
2018-11-26T13:06:17.278Z,3.36
2018-11-26T13:07:17.266Z,3.36
2018-11-26T13:08:17.254Z,3.34
2018-11-26T13:09:17.248Z,3.39
2018-11-26T13:10:17.275Z,3.34
2018-11-26T13:11:17.219Z,3.42
2018-11-26T13:12:17.208Z,3.33
2018-11-26T13:13:17.199Z,3.33
2018-11-26T13:14:17.192Z,3.36
2018-11-26T13:15:17.183Z,3.36
2018-11-26T13:16:17.197Z,3.39
2018-11-26T13:17:17.157Z,3.42
2018-11-26T13:18:17.148Z,3.40
2018-11-26T13:19:17.133Z,3.46
2018-11-26T13:20:17.121Z,3.47
2018-11-26T13:21:17.115Z,3.36
2018-11-26T13:22:17.132Z,3.40
2018-11-26T13:23:17.089Z,3.44